Millet, Canada
Current Conditions -  °F | °C
As of 5:00 PM on Saturday 25 Oct 2014 (Local Time) from CYEG Reporting Station
Broken Clouds Broken Clouds  
Wind Chill: 37°   Ceiling: 5600
Heat Index: 45°   Visibility: 20mi
Dew Point: 25°   Wind: 18mph
Humidity: 46%   Direction: 110°ESE
Pressure: 29.69"   Gusts: 30mph
Location:  53.08°N, 113.47°W
Report Text: CYEG 252300Z 11016G26KT 20SM BKN056 BKN068 07/M04 A2969 RMK SC7AC1 AC TR SLP083
Loading
Personal Weather Stations






























Interactive Weather Map
Tropical Storm Tracking
New forecast layout! Learn more

10-Day Weather Forecast

Advertisements
Track Severe Weather on mobile